Time;durP1;ratioP1;P1;durP2;ratioP2;P2;SDS_P1;SDS_P2;PMS_P1;PMS_P2;Temp;Humidity;BMP_temperature;BMP_pressure;BME280_temperature;BME280_humidity;BME280_pressure;Samples;Min_cycle;Max_cycle;Signal;HPM_P1;HPM_P2
2021/10/11 00:00:37;;;;;;;12.77;3.85;;;;;;;;;;5069798;28;20713;-72
2021/10/11 00:03:02;;;;;;;6.72;3.72;;;;;;;;;;5076723;28;20186;-71
2021/10/11 00:05:27;;;;;;;9.40;4.03;;;;;;;;;;5069863;28;20252;-72
2021/10/11 00:07:52;;;;;;;7.47;3.53;;;;;;;;;;5078201;28;20179;-72
2021/10/11 00:10:20;;;;;;;10.00;4.65;;;;;;;;;;5065358;28;20254;-72
2021/10/11 00:12:49;;;;;;;9.18;4.40;;;;;;;;;;5064955;28;20193;-72
2021/10/11 00:15:15;;;;;;;10.38;4.18;;;;;;;;;;5068041;28;20181;-72
2021/10/11 00:17:41;;;;;;;12.80;4.40;;;;;;;;;;5060344;28;20216;-72
2021/10/11 00:20:06;;;;;;;10.70;4.55;;;;;;;;;;5058584;28;20632;-72
2021/10/11 00:22:32;;;;;;;12.68;4.80;;;;;;;;;;5067383;28;20185;-72
2021/10/11 00:24:57;;;;;;;8.90;5.22;;;;;;;;;;5068397;28;20188;-72
2021/10/11 00:27:22;;;;;;;11.50;5.40;;;;;;;;;;5070365;28;20450;-72
2021/10/11 00:29:47;;;;;;;8.73;4.47;;;;;;;;;;5068086;28;20670;-72
2021/10/11 00:32:12;;;;;;;8.27;4.28;;;;;;;;;;5055600;28;20323;-73
2021/10/11 00:34:38;;;;;;;9.27;4.57;;;;;;;;;;5070550;28;20668;-72
2021/10/11 00:37:04;;;;;;;9.43;5.28;;;;;;;;;;5066361;28;20606;-72
2021/10/11 00:39:29;;;;;;;13.07;4.90;;;;;;;;;;5073393;28;20673;-72
2021/10/11 00:41:54;;;;;;;9.45;4.78;;;;;;;;;;5072388;28;20176;-73
2021/10/11 00:44:19;;;;;;;12.65;5.15;;;;;;;;;;5078619;28;20176;-72
2021/10/11 00:46:44;;;;;;;12.20;4.70;;;;;;;;;;5057144;28;20180;-72
2021/10/11 00:49:09;;;;;;;12.75;4.97;;;;;;;;;;5060061;28;20264;-72
2021/10/11 00:51:35;;;;;;;9.30;4.40;;;;;;;;;;5064622;28;20474;-73
2021/10/11 00:54:00;;;;;;;10.18;4.82;;;;;;;;;;5050616;28;20185;-72
2021/10/11 00:56:25;;;;;;;10.52;5.15;;;;;;;;;;5058050;28;20208;-72
2021/10/11 00:58:50;;;;;;;10.48;4.30;;;;;;;;;;5072503;28;20256;-72
2021/10/11 01:01:16;;;;;;;9.82;4.18;;;;;;;;;;5064267;28;20288;-72
2021/10/11 01:03:41;;;;;;;8.80;4.90;;;;;;;;;;5051437;28;20185;-72
2021/10/11 01:06:06;;;;;;;7.03;4.00;;;;;;;;;;5067204;28;20165;-72
2021/10/11 01:08:31;;;;;;;10.98;3.80;;;;;;;;;;5069978;28;20433;-72
2021/10/11 01:10:57;;;;;;;11.93;4.07;;;;;;;;;;5064704;28;20194;-72
2021/10/11 01:13:22;;;;;;;6.20;3.70;;;;;;;;;;5074255;28;20169;-72
2021/10/11 01:15:48;;;;;;;12.13;4.32;;;;;;;;;;5062496;28;20180;-72
2021/10/11 01:18:13;;;;;;;10.90;3.92;;;;;;;;;;5062650;28;20666;-72
2021/10/11 01:20:38;;;;;;;12.50;4.28;;;;;;;;;;5061247;28;20200;-72
2021/10/11 01:23:03;;;;;;;11.17;3.70;;;;;;;;;;5072182;28;20173;-72
2021/10/11 01:25:29;;;;;;;11.20;3.50;;;;;;;;;;5068133;28;20238;-72
2021/10/11 01:27:54;;;;;;;7.00;3.60;;;;;;;;;;5063003;28;20177;-72
2021/10/11 01:30:19;;;;;;;11.13;3.83;;;;;;;;;;5072976;28;20249;-72
2021/10/11 01:32:47;;;;;;;10.05;3.55;;;;;;;;;;5065105;28;20230;-72
2021/10/11 01:35:14;;;;;;;9.03;3.57;;;;;;;;;;5068542;28;20181;-72
2021/10/11 01:37:39;;;;;;;7.28;3.08;;;;;;;;;;5071768;28;20203;-72
2021/10/11 01:40:05;;;;;;;8.88;3.55;;;;;;;;;;5066539;28;20565;-72
2021/10/11 01:42:30;;;;;;;10.30;3.25;;;;;;;;;;5077486;28;20166;-72
2021/10/11 01:44:55;;;;;;;6.68;3.35;;;;;;;;;;5061448;28;20632;-72
2021/10/11 01:47:25;;;;;;;9.33;3.67;;;;;;;;;;5078168;28;20184;-72
2021/10/11 01:49:50;;;;;;;10.50;3.10;;;;;;;;;;5081322;22;21071;-76
2021/10/11 01:52:15;;;;;;;10.35;2.90;;;;;;;;;;5061171;28;20193;-75
2021/10/11 01:54:40;;;;;;;9.50;3.43;;;;;;;;;;5065556;28;20292;-75
2021/10/11 01:57:05;;;;;;;7.37;2.83;;;;;;;;;;5069562;28;20208;-76
2021/10/11 01:59:31;;;;;;;8.13;2.50;;;;;;;;;;5066664;28;20192;-75
2021/10/11 02:01:56;;;;;;;8.68;2.75;;;;;;;;;;5068951;28;20252;-76
2021/10/11 02:04:21;;;;;;;7.37;2.70;;;;;;;;;;5070441;28;20205;-75
2021/10/11 02:06:46;;;;;;;8.40;2.50;;;;;;;;;;5068954;28;20180;-76
2021/10/11 02:09:11;;;;;;;7.63;2.80;;;;;;;;;;5068358;28;20188;-75
2021/10/11 02:11:36;;;;;;;6.13;2.70;;;;;;;;;;5068606;28;20502;-75
2021/10/11 02:14:02;;;;;;;7.53;3.40;;;;;;;;;;5048509;28;20173;-75
2021/10/11 02:16:27;;;;;;;7.73;3.57;;;;;;;;;;5049937;28;20231;-75
2021/10/11 02:18:52;;;;;;;18.40;4.53;;;;;;;;;;5063160;28;20192;-75
2021/10/11 02:21:17;;;;;;;10.50;3.73;;;;;;;;;;5065418;28;20193;-75
2021/10/11 02:23:42;;;;;;;10.37;3.60;;;;;;;;;;5067408;28;20248;-75
2021/10/11 02:26:08;;;;;;;4.97;3.07;;;;;;;;;;5069692;28;20641;-75
2021/10/11 02:28:33;;;;;;;7.30;3.40;;;;;;;;;;5067353;28;20200;-75
2021/10/11 02:30:58;;;;;;;9.80;3.40;;;;;;;;;;5059750;28;20352;-75
2021/10/11 02:33:24;;;;;;;8.93;3.63;;;;;;;;;;5059844;28;20169;-75
2021/10/11 02:35:49;;;;;;;9.50;3.40;;;;;;;;;;5068093;28;20611;-75
2021/10/11 02:38:14;;;;;;;8.67;3.43;;;;;;;;;;5050562;28;20624;-76
2021/10/11 02:40:39;;;;;;;9.43;3.00;;;;;;;;;;5052819;28;20197;-75
2021/10/11 02:43:05;;;;;;;5.60;3.17;;;;;;;;;;5068760;28;20201;-75
2021/10/11 02:45:30;;;;;;;8.47;3.60;;;;;;;;;;5074631;28;20666;-75
2021/10/11 02:47:55;;;;;;;7.30;3.03;;;;;;;;;;5053659;28;20185;-75
2021/10/11 02:50:21;;;;;;;8.93;3.20;;;;;;;;;;5073810;28;20261;-76
2021/10/11 02:52:46;;;;;;;7.43;3.43;;;;;;;;;;5073055;28;20184;-75
2021/10/11 02:55:12;;;;;;;5.83;3.10;;;;;;;;;;5073045;28;20181;-75
2021/10/11 02:57:37;;;;;;;6.47;3.10;;;;;;;;;;5047888;28;20205;-76
2021/10/11 03:00:03;;;;;;;6.10;3.30;;;;;;;;;;5051184;28;20199;-76
2021/10/11 03:02:28;;;;;;;9.70;3.80;;;;;;;;;;5074751;28;20256;-75
2021/10/11 03:04:54;;;;;;;5.27;2.80;;;;;;;;;;5056872;28;20227;-75
2021/10/11 03:07:19;;;;;;;4.97;2.90;;;;;;;;;;5071494;28;20182;-75
2021/10/11 03:09:44;;;;;;;8.17;3.27;;;;;;;;;;5064078;28;20205;-76
2021/10/11 03:12:09;;;;;;;14.07;3.87;;;;;;;;;;5068808;28;20187;-75
2021/10/11 03:14:35;;;;;;;7.87;3.43;;;;;;;;;;5067295;28;20239;-75
2021/10/11 03:17:00;;;;;;;9.37;3.53;;;;;;;;;;5069735;28;20236;-76
2021/10/11 03:19:25;;;;;;;8.07;3.50;;;;;;;;;;5068826;28;20211;-75
2021/10/11 03:21:50;;;;;;;10.17;3.73;;;;;;;;;;5067793;28;20229;-75
2021/10/11 03:24:15;;;;;;;7.77;3.77;;;;;;;;;;5053411;28;20181;-75
2021/10/11 03:26:40;;;;;;;7.50;4.30;;;;;;;;;;5065314;28;20185;-76
2021/10/11 03:29:06;;;;;;;6.53;3.50;;;;;;;;;;5068422;28;20181;-76
2021/10/11 03:31:31;;;;;;;8.13;3.70;;;;;;;;;;5046189;28;20197;-75
2021/10/11 03:33:56;;;;;;;10.90;3.57;;;;;;;;;;5059868;28;20230;-75
2021/10/11 03:36:21;;;;;;;9.47;4.27;;;;;;;;;;5051997;28;20181;-75
2021/10/11 03:38:46;;;;;;;8.00;3.40;;;;;;;;;;5070130;28;20207;-74
2021/10/11 03:41:12;;;;;;;8.50;3.97;;;;;;;;;;5052753;28;20196;-75
2021/10/11 03:43:37;;;;;;;11.47;3.50;;;;;;;;;;5075388;28;20630;-75
2021/10/11 03:46:02;;;;;;;6.83;3.47;;;;;;;;;;5069423;28;20725;-75
2021/10/11 03:48:27;;;;;;;7.43;3.40;;;;;;;;;;5070186;28;20173;-75
2021/10/11 03:50:52;;;;;;;11.13;3.67;;;;;;;;;;5050539;28;20253;-75
2021/10/11 03:53:18;;;;;;;11.63;4.00;;;;;;;;;;5051992;28;20181;-75
2021/10/11 03:55:43;;;;;;;9.27;4.20;;;;;;;;;;5055956;28;20185;-74
2021/10/11 03:58:09;;;;;;;12.27;5.87;;;;;;;;;;5050382;28;20287;-75
2021/10/11 04:00:36;;;;;;;10.33;3.57;;;;;;;;;;5063941;28;20203;-75
2021/10/11 04:03:04;;;;;;;8.53;3.20;;;;;;;;;;5048432;28;20173;-75
2021/10/11 04:05:29;;;;;;;9.67;3.97;;;;;;;;;;5059705;28;20264;-75
2021/10/11 04:07:57;;;;;;;7.53;3.70;;;;;;;;;;5063475;28;20268;-76
2021/10/11 04:10:28;;;;;;;10.40;3.60;;;;;;;;;;5058937;28;20192;-75
2021/10/11 04:12:57;;;;;;;6.93;3.53;;;;;;;;;;5067540;28;20715;-75
2021/10/11 04:15:22;;;;;;;16.03;3.90;;;;;;;;;;5058512;28;20180;-75
2021/10/11 04:17:48;;;;;;;8.20;4.97;;;;;;;;;;5069087;28;20686;-75
2021/10/11 04:20:14;;;;;;;10.57;3.47;;;;;;;;;;5063907;28;20701;-76
2021/10/11 04:22:39;;;;;;;6.87;3.47;;;;;;;;;;5048327;28;20188;-75
2021/10/11 04:25:04;;;;;;;12.20;4.30;;;;;;;;;;5067780;28;20209;-75
2021/10/11 04:27:29;;;;;;;9.10;3.93;;;;;;;;;;5051441;28;20185;-76
2021/10/11 04:29:54;;;;;;;10.87;3.20;;;;;;;;;;5068321;28;20300;-77
2021/10/11 04:32:20;;;;;;;10.17;4.37;;;;;;;;;;5063395;28;20181;-76
2021/10/11 04:34:45;;;;;;;9.87;3.03;;;;;;;;;;5063893;28;20185;-76
2021/10/11 04:37:10;;;;;;;8.97;2.80;;;;;;;;;;5068825;28;20203;-76
2021/10/11 04:39:35;;;;;;;13.47;3.47;;;;;;;;;;5059386;28;20192;-76
2021/10/11 04:42:00;;;;;;;12.43;2.73;;;;;;;;;;5060001;28;20173;-76
2021/10/11 04:44:25;;;;;;;8.00;3.10;;;;;;;;;;5044062;28;20176;-75
2021/10/11 04:46:51;;;;;;;8.10;2.63;;;;;;;;;;5047289;28;20193;-77
2021/10/11 04:49:16;;;;;;;14.87;2.57;;;;;;;;;;5062307;28;20315;-75
2021/10/11 04:51:41;;;;;;;9.87;2.80;;;;;;;;;;5067761;28;20212;-76
2021/10/11 04:54:14;;;;;;;6.70;2.50;;;;;;;;;;5066462;28;20660;-76
2021/10/11 04:56:43;;;;;;;7.93;2.60;;;;;;;;;;5054944;28;20287;-76
2021/10/11 04:59:08;;;;;;;11.10;2.80;;;;;;;;;;5062844;28;20638;-76
2021/10/11 05:01:34;;;;;;;6.70;2.40;;;;;;;;;;5045952;28;20190;-76
2021/10/11 05:03:59;;;;;;;7.93;2.70;;;;;;;;;;5056351;28;20176;-76
2021/10/11 05:06:24;;;;;;;13.03;3.90;;;;;;;;;;5064365;28;20531;-76
2021/10/11 05:08:49;;;;;;;9.07;2.40;;;;;;;;;;5046243;28;20184;-76
2021/10/11 05:11:14;;;;;;;11.90;3.47;;;;;;;;;;5060253;28;20302;-76
2021/10/11 05:13:39;;;;;;;7.97;2.87;;;;;;;;;;5065736;28;20181;-76
2021/10/11 05:16:10;;;;;;;14.07;3.50;;;;;;;;;;5054856;28;20176;-76
2021/10/11 05:18:36;;;;;;;5.30;2.60;;;;;;;;;;5045847;28;20207;-76
2021/10/11 05:21:01;;;;;;;8.03;2.30;;;;;;;;;;5058596;28;20201;-76
2021/10/11 05:23:28;;;;;;;14.60;3.37;;;;;;;;;;5067136;28;20192;-76
2021/10/11 05:25:54;;;;;;;5.77;2.20;;;;;;;;;;5068252;28;20180;-76
2021/10/11 05:28:19;;;;;;;7.63;2.27;;;;;;;;;;5068787;28;20210;-76
2021/10/11 05:30:44;;;;;;;15.17;3.77;;;;;;;;;;5064220;28;20215;-76
2021/10/11 05:33:09;;;;;;;15.27;5.33;;;;;;;;;;5067257;28;20243;-75
2021/10/11 05:35:36;;;;;;;11.10;2.53;;;;;;;;;;5071493;28;20515;-76
2021/10/11 05:38:04;;;;;;;8.63;2.13;;;;;;;;;;5070120;28;20196;-77
2021/10/11 05:40:30;;;;;;;8.80;2.20;;;;;;;;;;5051435;28;20193;-76
2021/10/11 05:42:55;;;;;;;5.30;2.20;;;;;;;;;;5071285;28;20519;-76
2021/10/11 05:45:21;;;;;;;9.83;2.77;;;;;;;;;;5067499;28;20825;-75
2021/10/11 05:47:46;;;;;;;13.30;2.83;;;;;;;;;;5067002;28;20215;-75
2021/10/11 05:50:11;;;;;;;11.50;2.97;;;;;;;;;;5048281;28;20213;-75
2021/10/11 05:52:36;;;;;;;4.63;2.23;;;;;;;;;;5071267;28;20212;-75
2021/10/11 05:55:02;;;;;;;7.17;2.63;;;;;;;;;;5050079;28;20220;-75
2021/10/11 05:57:27;;;;;;;8.50;2.63;;;;;;;;;;5072830;28;20282;-75
2021/10/11 05:59:52;;;;;;;14.63;3.67;;;;;;;;;;5053025;28;20278;-75
2021/10/11 06:02:17;;;;;;;3.93;2.10;;;;;;;;;;5072475;28;20192;-75
2021/10/11 06:04:43;;;;;;;7.00;2.50;;;;;;;;;;5058483;28;20181;-75
2021/10/11 06:07:08;;;;;;;6.27;3.07;;;;;;;;;;5051755;28;20249;-76
2021/10/11 06:09:33;;;;;;;8.47;2.93;;;;;;;;;;5067826;28;20654;-75
2021/10/11 06:11:59;;;;;;;9.03;2.60;;;;;;;;;;5067682;28;20192;-75
2021/10/11 06:14:24;;;;;;;9.53;3.00;;;;;;;;;;5070344;28;20609;-75
2021/10/11 06:16:49;;;;;;;6.20;2.70;;;;;;;;;;5065663;28;20206;-75
2021/10/11 06:19:15;;;;;;;5.93;2.37;;;;;;;;;;5074626;28;20782;-76
2021/10/11 06:21:40;;;;;;;9.53;3.00;;;;;;;;;;5068495;28;20331;-76
2021/10/11 06:24:05;;;;;;;7.33;2.67;;;;;;;;;;5068337;28;20179;-76
2021/10/11 06:26:30;;;;;;;10.03;2.83;;;;;;;;;;5067804;28;20181;-75
2021/10/11 06:28:55;;;;;;;5.90;2.80;;;;;;;;;;5070218;28;20250;-75
2021/10/11 06:31:21;;;;;;;7.37;2.33;;;;;;;;;;5072069;28;20197;-77
2021/10/11 06:33:46;;;;;;;11.03;2.90;;;;;;;;;;5066979;28;20173;-75
2021/10/11 06:36:11;;;;;;;8.23;2.80;;;;;;;;;;5061633;28;20764;-76
2021/10/11 06:38:37;;;;;;;8.60;3.43;;;;;;;;;;5070081;28;20197;-75
2021/10/11 06:41:02;;;;;;;9.07;3.10;;;;;;;;;;5064087;28;20201;-76
2021/10/11 06:43:28;;;;;;;6.07;2.40;;;;;;;;;;5050809;28;20173;-76
2021/10/11 06:45:53;;;;;;;9.40;2.50;;;;;;;;;;5068144;28;20196;-76
2021/10/11 06:48:18;;;;;;;10.47;3.17;;;;;;;;;;5066803;28;20208;-76
2021/10/11 06:50:44;;;;;;;7.00;2.87;;;;;;;;;;5068906;28;20201;-76
2021/10/11 06:53:09;;;;;;;8.00;2.60;;;;;;;;;;5047401;28;20213;-76
2021/10/11 06:55:34;;;;;;;7.43;2.43;;;;;;;;;;5066335;28;20186;-76
2021/10/11 06:57:59;;;;;;;9.97;3.17;;;;;;;;;;5049170;28;20674;-76
2021/10/11 07:00:25;;;;;;;7.27;3.33;;;;;;;;;;5044640;28;20205;-74
2021/10/11 07:02:50;;;;;;;9.23;2.83;;;;;;;;;;5058201;28;20180;-75
2021/10/11 07:05:16;;;;;;;8.07;2.50;;;;;;;;;;5064566;28;20191;-74
2021/10/11 07:07:42;;;;;;;4.63;2.77;;;;;;;;;;5068742;28;20177;-74
2021/10/11 07:10:08;;;;;;;8.27;2.50;;;;;;;;;;5048904;28;20222;-76
2021/10/11 07:12:33;;;;;;;5.67;2.00;;;;;;;;;;5062728;28;20654;-76
2021/10/11 07:14:59;;;;;;;5.73;2.03;;;;;;;;;;5065605;28;20177;-76
2021/10/11 07:17:24;;;;;;;8.93;2.53;;;;;;;;;;5065373;28;20680;-76
2021/10/11 07:19:49;;;;;;;7.13;2.83;;;;;;;;;;5062136;28;20185;-76
2021/10/11 07:22:15;;;;;;;8.73;2.97;;;;;;;;;;5047687;28;20176;-76
2021/10/11 07:24:41;;;;;;;5.03;2.50;;;;;;;;;;5056197;28;20172;-75
2021/10/11 07:27:06;;;;;;;5.97;2.57;;;;;;;;;;5060156;28;20173;-75
2021/10/11 07:29:31;;;;;;;8.03;2.53;;;;;;;;;;5068683;28;20177;-77
2021/10/11 07:31:56;;;;;;;7.63;2.63;;;;;;;;;;5063368;28;20178;-76
2021/10/11 07:34:22;;;;;;;9.70;2.47;;;;;;;;;;5062884;28;20581;-76
2021/10/11 07:36:47;;;;;;;6.87;2.73;;;;;;;;;;5051488;28;20201;-76
2021/10/11 07:39:13;;;;;;;10.00;2.33;;;;;;;;;;5069170;28;20319;-77
2021/10/11 07:41:38;;;;;;;6.72;2.08;;;;;;;;;;5070822;28;20185;-76
2021/10/11 07:44:03;;;;;;;9.18;2.40;;;;;;;;;;5066732;28;20236;-76
2021/10/11 07:46:29;;;;;;;7.43;2.35;;;;;;;;;;5067349;28;20697;-76
2021/10/11 07:48:55;;;;;;;6.90;2.30;;;;;;;;;;5070430;28;20205;-76
2021/10/11 07:51:20;;;;;;;6.18;1.85;;;;;;;;;;5071866;22;20576;-71
2021/10/11 07:53:45;;;;;;;8.25;2.70;;;;;;;;;;5048222;28;20212;-71
2021/10/11 07:56:11;;;;;;;7.20;1.75;;;;;;;;;;5049867;28;20594;-71
2021/10/11 07:58:36;;;;;;;5.78;2.58;;;;;;;;;;5049218;28;20213;-71
2021/10/11 08:01:01;;;;;;;5.68;2.30;;;;;;;;;;5046588;28;20193;-71
2021/10/11 08:03:26;;;;;;;7.72;2.10;;;;;;;;;;5038235;28;20256;-72
2021/10/11 08:05:52;;;;;;;11.20;3.45;;;;;;;;;;5047708;28;20277;-70
2021/10/11 08:08:17;;;;;;;6.30;2.20;;;;;;;;;;5026166;28;20181;-70
2021/10/11 08:10:44;;;;;;;4.30;2.20;;;;;;;;;;5052648;28;20189;-71
2021/10/11 08:13:09;;;;;;;7.25;3.00;;;;;;;;;;5034252;28;20177;-71
2021/10/11 08:15:34;;;;;;;8.50;2.25;;;;;;;;;;5042901;28;20177;-71
2021/10/11 08:17:59;;;;;;;7.87;2.77;;;;;;;;;;5050522;28;20204;-70
2021/10/11 08:20:25;;;;;;;5.70;1.95;;;;;;;;;;5047328;28;20856;-70
2021/10/11 08:22:50;;;;;;;6.05;2.92;;;;;;;;;;5047276;28;20177;-70
2021/10/11 08:25:16;;;;;;;14.77;4.20;;;;;;;;;;5049972;28;20643;-70
2021/10/11 08:27:41;;;;;;;5.25;1.98;;;;;;;;;;5052124;28;20179;-70
2021/10/11 08:30:07;;;;;;;7.35;1.95;;;;;;;;;;5044632;28;20189;-70
2021/10/11 08:32:32;;;;;;;5.18;2.38;;;;;;;;;;5030069;28;20367;-71
2021/10/11 08:34:58;;;;;;;9.23;2.00;;;;;;;;;;5044194;28;20666;-72
2021/10/11 08:37:23;;;;;;;9.60;2.83;;;;;;;;;;5047415;28;20208;-70
2021/10/11 08:39:49;;;;;;;8.95;2.65;;;;;;;;;;5040680;28;20261;-70
2021/10/11 08:42:15;;;;;;;6.68;2.15;;;;;;;;;;5042190;28;20174;-73
2021/10/11 08:44:41;;;;;;;6.75;2.15;;;;;;;;;;5037777;28;20169;-70
2021/10/11 08:47:08;;;;;;;5.25;2.67;;;;;;;;;;5044956;28;20192;-72
2021/10/11 08:49:33;;;;;;;7.55;2.20;;;;;;;;;;5031208;28;20205;-72
2021/10/11 08:51:58;;;;;;;5.30;2.13;;;;;;;;;;5040844;28;20205;-72
2021/10/11 08:54:24;;;;;;;7.05;2.25;;;;;;;;;;5049817;28;20666;-71
2021/10/11 08:56:49;;;;;;;12.20;2.40;;;;;;;;;;5028189;28;20201;-72
2021/10/11 08:59:24;;;;;;;6.40;2.00;;;;;;;;;;5047059;28;20178;-66
2021/10/11 09:01:59;;;;;;;8.68;2.38;;;;;;;;;;5037891;28;20204;-72
2021/10/11 09:04:24;;;;;;;9.75;1.98;;;;;;;;;;5044444;28;20296;-72
2021/10/11 09:07:10;;;;;;;7.10;2.13;;;;;;;;;;5039211;28;20312;-72
2021/10/11 09:09:48;;;;;;;14.43;2.65;;;;;;;;;;5048247;28;20464;-70
2021/10/11 09:12:23;;;;;;;7.30;2.20;;;;;;;;;;5032170;28;20212;-71
2021/10/11 09:14:58;;;;;;;5.85;2.90;;;;;;;;;;5030226;28;20177;-73
2021/10/11 09:17:27;;;;;;;8.85;2.60;;;;;;;;;;5029697;28;20203;-71
2021/10/11 09:19:58;;;;;;;8.27;2.28;;;;;;;;;;5029417;28;20184;-73
2021/10/11 09:22:30;;;;;;;7.07;2.28;;;;;;;;;;5026689;28;20555;-73
2021/10/11 09:24:59;;;;;;;8.40;2.15;;;;;;;;;;5039775;28;20591;-73
2021/10/11 09:27:24;;;;;;;6.18;2.20;;;;;;;;;;5025908;28;20706;-73
2021/10/11 09:29:49;;;;;;;5.47;1.80;;;;;;;;;;5047701;28;20182;-73
2021/10/11 09:32:14;;;;;;;7.25;1.90;;;;;;;;;;5046264;28;20178;-73
2021/10/11 09:34:40;;;;;;;8.53;2.40;;;;;;;;;;5035509;28;20182;-73
2021/10/11 09:37:07;;;;;;;10.20;1.63;;;;;;;;;;5043471;28;20450;-73
2021/10/11 09:39:33;;;;;;;6.35;1.77;;;;;;;;;;5045359;28;20209;-73
2021/10/11 09:41:59;;;;;;;9.60;2.20;;;;;;;;;;5052378;28;20193;-72
2021/10/11 09:44:24;;;;;;;6.88;2.05;;;;;;;;;;5046214;28;20185;-71
2021/10/11 09:47:26;;;;;;;8.20;1.60;;;;;;;;;;5054690;28;20240;-73
2021/10/11 09:49:42;;;;;;;6.53;1.75;;;;;;;;;;5044185;28;20262;-72
2021/10/11 09:52:08;;;;;;;7.35;2.00;;;;;;;;;;5053185;28;20491;-70
2021/10/11 09:54:33;;;;;;;6.82;1.73;;;;;;;;;;5051497;28;20213;-70
2021/10/11 09:56:59;;;;;;;8.82;2.03;;;;;;;;;;5050796;28;20273;-68
2021/10/11 09:59:24;;;;;;;8.93;1.23;;;;;;;;;;5028913;28;20177;-70
2021/10/11 10:01:50;;;;;;;7.80;1.98;;;;;;;;;;5053453;28;20189;-72
2021/10/11 10:04:17;;;;;;;6.03;1.60;;;;;;;;;;5051758;28;20177;-73
2021/10/11 10:06:46;;;;;;;8.43;1.88;;;;;;;;;;5044477;28;20635;-73
2021/10/11 10:09:12;;;;;;;4.55;1.20;;;;;;;;;;5041845;28;20221;-71
2021/10/11 10:11:37;;;;;;;6.95;1.55;;;;;;;;;;5048894;28;20201;-74
2021/10/11 10:14:03;;;;;;;5.37;1.20;;;;;;;;;;5034820;28;20178;-72
2021/10/11 10:16:30;;;;;;;9.25;1.63;;;;;;;;;;5051040;28;20454;-74
2021/10/11 10:18:55;;;;;;;6.85;1.83;;;;;;;;;;5042183;28;20246;-78
2021/10/11 10:21:29;;;;;;;6.72;1.25;;;;;;;;;;5045459;28;20674;-72
2021/10/11 10:23:55;;;;;;;5.50;1.40;;;;;;;;;;5051458;28;20212;-69
2021/10/11 10:26:33;;;;;;;5.47;1.40;;;;;;;;;;5037810;28;20178;-69
2021/10/11 10:29:00;;;;;;;8.40;1.65;;;;;;;;;;5047870;28;20193;-71
2021/10/11 10:31:28;;;;;;;4.78;1.45;;;;;;;;;;5051387;28;20190;-71
2021/10/11 10:33:53;;;;;;;4.40;1.60;;;;;;;;;;5041031;28;20264;-70
2021/10/11 10:36:18;;;;;;;6.00;1.55;;;;;;;;;;5051127;28;20260;-69
2021/10/11 10:38:43;;;;;;;8.60;1.73;;;;;;;;;;5047836;28;20262;-71
2021/10/11 10:41:18;;;;;;;8.18;1.98;;;;;;;;;;5035698;28;21009;-68
2021/10/11 10:43:43;;;;;;;7.93;2.50;;;;;;;;;;5019546;28;20802;-67
2021/10/11 10:46:09;;;;;;;5.23;1.40;;;;;;;;;;5036412;28;20186;-69
2021/10/11 10:48:35;;;;;;;2.45;0.95;;;;;;;;;;5041052;28;20821;-68
2021/10/11 10:51:02;;;;;;;10.13;1.50;;;;;;;;;;5047950;28;20244;-69
2021/10/11 10:53:29;;;;;;;8.32;1.48;;;;;;;;;;5049640;28;20273;-68
2021/10/11 10:55:54;;;;;;;6.35;1.30;;;;;;;;;;5050073;28;20724;-67
2021/10/11 10:58:21;;;;;;;5.90;1.08;;;;;;;;;;5045014;28;20217;-68
2021/10/11 11:00:46;;;;;;;5.88;1.17;;;;;;;;;;5046861;28;20193;-67
2021/10/11 11:03:13;;;;;;;9.25;1.83;;;;;;;;;;5043658;28;20698;-68
2021/10/11 11:05:39;;;;;;;7.80;1.52;;;;;;;;;;5040888;28;20330;-68
2021/10/11 11:08:04;;;;;;;5.90;1.20;;;;;;;;;;5051788;28;20201;-68
2021/10/11 11:10:33;;;;;;;11.80;1.52;;;;;;;;;;5034239;28;20256;-68
2021/10/11 11:13:03;;;;;;;3.35;1.02;;;;;;;;;;5046739;28;20181;-68
2021/10/11 11:15:28;;;;;;;6.75;1.70;;;;;;;;;;5042784;28;20228;-69
2021/10/11 11:17:55;;;;;;;5.47;1.30;;;;;;;;;;5045250;28;20210;-68
2021/10/11 11:20:23;;;;;;;6.28;1.33;;;;;;;;;;5048240;28;20194;-68
2021/10/11 11:22:49;;;;;;;6.90;1.40;;;;;;;;;;5042499;28;20269;-68
2021/10/11 11:25:14;;;;;;;4.13;0.88;;;;;;;;;;5050174;28;20650;-68
2021/10/11 11:27:41;;;;;;;4.78;1.33;;;;;;;;;;5022867;28;20737;-68
2021/10/11 11:30:11;;;;;;;13.30;1.48;;;;;;;;;;5047608;28;20197;-72
2021/10/11 11:32:52;;;;;;;4.40;1.40;;;;;;;;;;5050741;28;20257;-70
2021/10/11 11:35:25;;;;;;;3.00;0.80;;;;;;;;;;5027102;28;20609;-67
2021/10/11 11:37:52;;;;;;;5.53;1.20;;;;;;;;;;5030283;28;20220;-67
2021/10/11 11:40:18;;;;;;;4.43;1.20;;;;;;;;;;5043819;28;20198;-68
2021/10/11 11:42:47;;;;;;;5.97;1.05;;;;;;;;;;5052251;28;20169;-68
2021/10/11 11:45:14;;;;;;;3.45;0.98;;;;;;;;;;5035641;28;20209;-68
2021/10/11 11:47:39;;;;;;;4.78;1.35;;;;;;;;;;5050967;28;20178;-68
2021/10/11 11:50:15;;;;;;;2.45;0.88;;;;;;;;;;5049409;28;20240;-68
2021/10/11 11:52:40;;;;;;;5.45;1.17;;;;;;;;;;5050826;28;20177;-68
2021/10/11 11:55:07;;;;;;;4.20;1.00;;;;;;;;;;5047796;28;20540;-69
2021/10/11 11:57:39;;;;;;;4.57;0.88;;;;;;;;;;5050638;28;20446;-68
2021/10/11 12:00:05;;;;;;;5.50;0.93;;;;;;;;;;5038117;28;20227;-68
2021/10/11 12:02:30;;;;;;;5.25;1.13;;;;;;;;;;5049189;28;20182;-69
2021/10/11 12:04:55;;;;;;;5.03;1.70;;;;;;;;;;5029598;28;20178;-70
2021/10/11 12:07:21;;;;;;;5.28;0.98;;;;;;;;;;5021054;28;20178;-68
2021/10/11 12:09:48;;;;;;;3.50;1.00;;;;;;;;;;5047192;28;21119;-67
2021/10/11 12:12:13;;;;;;;4.85;0.93;;;;;;;;;;5043195;28;20712;-68
2021/10/11 12:14:38;;;;;;;2.22;0.80;;;;;;;;;;5051663;28;20177;-68
2021/10/11 12:17:07;;;;;;;4.33;0.90;;;;;;;;;;5046244;28;20217;-68
2021/10/11 12:19:38;;;;;;;6.28;1.70;;;;;;;;;;5042551;28;20426;-67
2021/10/11 12:22:04;;;;;;;6.03;1.10;;;;;;;;;;5042734;28;20666;-69
2021/10/11 12:24:32;;;;;;;7.72;1.98;;;;;;;;;;5048020;28;20173;-67
2021/10/11 12:27:07;;;;;;;4.68;1.08;;;;;;;;;;5046399;28;20181;-68
2021/10/11 12:29:33;;;;;;;5.65;1.00;;;;;;;;;;5045073;28;20280;-66
2021/10/11 12:31:58;;;;;;;4.93;0.95;;;;;;;;;;5046560;28;20201;-69
2021/10/11 12:34:31;;;;;;;7.20;1.42;;;;;;;;;;5038176;28;20192;-71
2021/10/11 12:36:57;;;;;;;2.90;1.00;;;;;;;;;;5044118;28;20292;-75
2021/10/11 12:39:35;;;;;;;4.57;0.93;;;;;;;;;;5047268;28;20181;-69
2021/10/11 12:42:01;;;;;;;5.65;1.63;;;;;;;;;;5031011;28;20197;-69
2021/10/11 12:44:36;;;;;;;7.57;1.00;;;;;;;;;;5045609;28;20169;-68
2021/10/11 12:47:03;;;;;;;5.45;1.33;;;;;;;;;;5031098;28;20177;-69
2021/10/11 12:49:38;;;;;;;5.57;1.50;;;;;;;;;;5043771;28;20521;-68
2021/10/11 12:52:04;;;;;;;4.90;1.17;;;;;;;;;;5045203;28;20220;-67
2021/10/11 12:54:30;;;;;;;4.93;1.30;;;;;;;;;;5042127;28;20654;-67
2021/10/11 12:56:56;;;;;;;5.35;1.60;;;;;;;;;;5044029;28;20336;-67
2021/10/11 12:59:22;;;;;;;5.47;1.10;;;;;;;;;;5044173;28;20173;-68
2021/10/11 13:01:48;;;;;;;7.05;1.10;;;;;;;;;;5048879;28;20193;-67
2021/10/11 13:04:14;;;;;;;7.35;1.65;;;;;;;;;;5047222;28;20174;-67
2021/10/11 13:06:43;;;;;;;5.25;1.38;;;;;;;;;;5047185;28;20184;-68
2021/10/11 13:09:08;;;;;;;8.50;1.95;;;;;;;;;;5046559;28;20264;-67
2021/10/11 13:11:33;;;;;;;6.20;1.60;;;;;;;;;;5050032;28;20285;-67
2021/10/11 13:13:58;;;;;;;3.13;1.10;;;;;;;;;;5048219;28;20419;-68
2021/10/11 13:16:24;;;;;;;6.60;1.90;;;;;;;;;;5049808;28;20570;-71
2021/10/11 13:18:49;;;;;;;5.05;1.23;;;;;;;;;;5039092;28;20205;-71
2021/10/11 13:21:15;;;;;;;3.42;1.38;;;;;;;;;;5037256;28;20619;-74
2021/10/11 13:23:42;;;;;;;6.20;1.80;;;;;;;;;;5031736;28;20196;-76
2021/10/11 13:26:08;;;;;;;6.88;0.98;;;;;;;;;;5038810;28;20217;-75
2021/10/11 13:28:36;;;;;;;3.03;1.15;;;;;;;;;;5050041;28;20213;-70
2021/10/11 14:27:39;;;;;;;9.07;2.08;;;;;;;;;;5045103;28;20654;-73
2021/10/11 14:30:27;;;;;;;7.72;1.27;;;;;;;;;;5051498;28;20212;-73
2021/10/11 15:58:14;;;;;;;6.13;1.48;;;;;;;;;;5049522;28;20209;-74
2021/10/11 16:00:56;;;;;;;4.40;1.63;;;;;;;;;;5050029;28;20185;-76
2021/10/11 16:06:05;;;;;;;5.15;1.88;;;;;;;;;;5049183;28;20552;-74
2021/10/11 16:08:32;;;;;;;5.35;1.52;;;;;;;;;;5061261;28;20173;-75
2021/10/11 16:10:57;;;;;;;6.70;1.30;;;;;;;;;;5046162;28;20694;-73
2021/10/11 16:13:22;;;;;;;6.18;1.42;;;;;;;;;;5038270;28;20181;-74
2021/10/11 16:15:48;;;;;;;7.95;1.23;;;;;;;;;;5051549;28;20617;-74
2021/10/11 16:18:14;;;;;;;8.70;2.40;;;;;;;;;;5030976;28;20200;-74
2021/10/11 16:20:39;;;;;;;4.72;1.20;;;;;;;;;;5053927;28;20674;-75
2021/10/11 16:23:05;;;;;;;6.82;1.60;;;;;;;;;;5023036;28;20181;-74
2021/10/11 16:25:30;;;;;;;5.88;2.30;;;;;;;;;;5056099;28;20255;-74
2021/10/11 16:27:55;;;;;;;7.25;2.38;;;;;;;;;;5032296;28;20549;-73
2021/10/11 16:30:21;;;;;;;6.47;3.00;;;;;;;;;;5049688;28;20577;-72
2021/10/11 16:32:46;;;;;;;5.82;1.40;;;;;;;;;;5045999;28;20178;-73
2021/10/11 16:35:11;;;;;;;5.90;1.53;;;;;;;;;;5056672;28;20238;-73
2021/10/11 16:37:36;;;;;;;3.20;1.23;;;;;;;;;;5021749;28;20485;-75
2021/10/11 16:40:02;;;;;;;4.63;1.30;;;;;;;;;;5035907;28;20205;-71
2021/10/11 16:42:29;;;;;;;5.88;2.63;;;;;;;;;;5052154;28;20225;-74
2021/10/11 16:44:54;;;;;;;5.78;1.25;;;;;;;;;;5046354;28;20184;-71
2021/10/11 16:47:20;;;;;;;4.43;1.00;;;;;;;;;;5048927;28;20268;-71
2021/10/11 16:49:45;;;;;;;3.53;1.13;;;;;;;;;;5046735;28;20190;-74
2021/10/11 16:52:10;;;;;;;3.25;1.00;;;;;;;;;;5054192;28;20266;-75
2021/10/11 16:54:35;;;;;;;4.82;0.98;;;;;;;;;;5054625;28;20241;-74
2021/10/11 16:57:01;;;;;;;3.25;1.10;;;;;;;;;;5050653;28;20252;-74
2021/10/11 16:59:27;;;;;;;6.47;1.27;;;;;;;;;;5053394;28;20591;-72